createdAt,value
2018-05-09T00:00:07.299Z,100061.11
2018-05-09T00:02:35.590Z,100057.50
2018-05-09T00:05:07.015Z,100051.10
2018-05-09T00:07:35.610Z,100049.65
2018-05-09T00:10:06.784Z,100042.83
2018-05-09T00:12:35.062Z,100045.73
2018-05-09T00:15:06.249Z,100046.23
2018-05-09T00:17:34.567Z,100053.20
2018-05-09T00:20:05.866Z,100049.52
2018-05-09T00:22:34.138Z,100048.07
2018-05-09T00:25:05.603Z,100048.69
2018-05-09T00:27:33.880Z,100049.41
2018-05-09T00:30:05.169Z,100052.20
2018-05-09T00:32:33.451Z,100058.69
2018-05-09T00:35:08.174Z,100055.81
2018-05-09T00:37:36.600Z,100053.42
2018-05-09T00:40:06.707Z,100060.81
2018-05-09T00:42:34.989Z,100058.55
2018-05-09T00:45:06.800Z,100053.02
2018-05-09T00:47:35.078Z,100056.54
2018-05-09T00:50:07.086Z,100049.87
2018-05-09T00:52:37.383Z,100053.47
2018-05-09T00:55:06.468Z,100058.32
2018-05-09T00:57:34.759Z,100055.95
2018-05-09T01:00:06.854Z,100058.33
2018-05-09T01:02:35.629Z,100061.91
2018-05-09T01:05:07.492Z,100054.30
2018-05-09T01:07:35.743Z,100049.00
2018-05-09T01:10:05.831Z,100049.30
2018-05-09T01:12:34.115Z,100059.44
2018-05-09T01:15:07.315Z,100056.50
2018-05-09T01:17:35.595Z,100053.08
2018-05-09T01:20:07.509Z,100052.36
2018-05-09T01:22:35.792Z,100056.52
2018-05-09T01:25:07.486Z,100058.34
2018-05-09T01:27:35.768Z,100060.35
2018-05-09T01:30:07.844Z,100058.42
2018-05-09T01:32:36.364Z,100055.19
2018-05-09T01:35:07.401Z,100050.28
2018-05-09T01:37:35.868Z,100059.94
2018-05-09T01:40:06.051Z,100052.84
2018-05-09T01:42:34.340Z,100051.00
2018-05-09T01:45:09.396Z,100048.09
2018-05-09T01:47:37.698Z,100050.39
2018-05-09T01:50:05.964Z,100052.86
2018-05-09T01:52:34.227Z,100046.09
2018-05-09T01:55:09.471Z,100042.66
2018-05-09T01:57:37.731Z,100038.52
2018-05-09T02:00:06.010Z,100038.87
2018-05-09T02:02:34.540Z,100043.16
2018-05-09T02:05:06.721Z,100039.17
2018-05-09T02:07:34.928Z,100039.77
2018-05-09T02:10:06.396Z,100040.33
2018-05-09T02:12:34.666Z,100044.37
2018-05-09T02:15:06.631Z,100046.39
2018-05-09T02:17:35.155Z,100048.98
2018-05-09T02:20:06.955Z,100049.83
2018-05-09T02:22:35.219Z,100049.70
2018-05-09T02:25:07.043Z,100045.80
2018-05-09T02:27:35.503Z,100046.89
2018-05-09T02:30:05.867Z,100049.80
2018-05-09T02:32:34.123Z,100050.56
2018-05-09T02:35:05.850Z,100042.59
2018-05-09T02:37:34.331Z,100047.11
2018-05-09T02:40:05.864Z,100040.13
2018-05-09T02:42:34.187Z,100045.70
2018-05-09T02:45:05.728Z,100043.97
2018-05-09T02:47:34.184Z,100044.00
2018-05-09T02:50:08.181Z,100045.38
2018-05-09T02:52:36.444Z,100046.62
2018-05-09T02:55:06.395Z,100042.54
2018-05-09T02:57:34.879Z,100050.66
2018-05-09T03:00:06.697Z,100050.45
2018-05-09T03:02:35.103Z,100045.00
2018-05-09T03:05:05.923Z,100041.63
2018-05-09T03:07:34.323Z,100047.37
2018-05-09T03:10:05.884Z,100048.47
2018-05-09T03:12:34.232Z,100047.48
2018-05-09T03:15:07.458Z,100051.73
2018-05-09T03:17:35.723Z,100051.61
2018-05-09T03:20:07.527Z,100059.94
2018-05-09T03:22:35.792Z,100060.16
2018-05-09T03:25:07.915Z,100066.48
2018-05-09T03:27:36.179Z,100066.88
2018-05-09T03:30:07.146Z,100068.61
2018-05-09T03:32:35.404Z,100067.03
2018-05-09T03:35:06.858Z,100062.62
2018-05-09T03:37:35.334Z,100069.15
2018-05-09T03:40:06.887Z,100067.56
2018-05-09T03:42:35.886Z,100061.52
2018-05-09T03:45:06.321Z,100059.94
2018-05-09T03:47:34.595Z,100060.48
2018-05-09T03:50:07.417Z,100066.25
2018-05-09T03:52:35.959Z,100068.77
2018-05-09T03:55:06.049Z,100071.28
2018-05-09T03:57:34.656Z,100074.03
2018-05-09T04:00:06.151Z,100076.53
2018-05-09T04:02:46.375Z,100074.78
2018-05-09T04:05:26.269Z,100067.66
2018-05-09T04:08:06.724Z,100072.04
2018-05-09T04:10:35.007Z,100069.38
2018-05-09T04:13:03.295Z,100071.06
2018-05-09T04:15:31.594Z,100075.39
2018-05-09T04:18:00.037Z,100072.03
2018-05-09T04:20:28.308Z,100067.33
2018-05-09T04:22:56.591Z,100079.66
2018-05-09T04:25:24.875Z,100079.23
2018-05-09T04:27:53.162Z,100083.55
2018-05-09T04:30:21.415Z,100089.14
2018-05-09T04:32:49.713Z,100091.55
2018-05-09T04:35:17.971Z,100090.86
2018-05-09T04:37:46.269Z,100080.30
2018-05-09T04:40:14.532Z,100081.00
2018-05-09T04:42:43.807Z,100085.94
2018-05-09T04:45:12.072Z,100090.29
2018-05-09T04:47:40.346Z,100092.55
2018-05-09T04:50:08.615Z,100094.88
2018-05-09T04:52:37.060Z,100098.85
2018-05-09T04:55:07.635Z,100095.14
2018-05-09T04:57:35.939Z,100095.98
2018-05-09T05:00:07.423Z,100096.64
2018-05-09T05:02:36.043Z,100091.45
2018-05-09T05:05:07.824Z,100102.59
2018-05-09T05:07:36.163Z,100099.55
2018-05-09T05:10:09.259Z,100089.10
2018-05-09T05:12:37.543Z,100088.22
2018-05-09T05:15:06.737Z,100092.23
2018-05-09T05:17:35.863Z,100087.31
2018-05-09T05:20:07.072Z,100092.11
2018-05-09T05:22:35.352Z,100097.28
2018-05-09T05:25:07.487Z,100096.21
2018-05-09T05:27:35.774Z,100100.23
2018-05-09T05:30:07.639Z,100098.86
2018-05-09T05:32:35.923Z,100099.95
2018-05-09T05:35:07.247Z,100101.08
2018-05-09T05:37:35.561Z,100099.67
2018-05-09T05:40:07.590Z,100100.23
2018-05-09T05:42:35.879Z,100104.39
2018-05-09T05:45:08.751Z,100099.16
2018-05-09T05:47:37.246Z,100094.78
2018-05-09T05:50:06.222Z,100099.89
2018-05-09T05:52:34.871Z,100090.28
2018-05-09T05:55:06.151Z,100096.50
2018-05-09T05:57:34.443Z,100094.66
2018-05-09T06:00:07.816Z,100098.45
2018-05-09T06:02:36.102Z,100103.70
2018-05-09T06:05:07.655Z,100107.85
2018-05-09T06:07:35.963Z,100107.06
2018-05-09T06:10:07.487Z,100109.89
2018-05-09T06:12:35.770Z,100108.72
2018-05-09T06:15:07.514Z,100113.89
2018-05-09T06:17:35.974Z,100114.12
2018-05-09T06:20:06.223Z,100112.37
2018-05-09T06:22:34.480Z,100116.70
2018-05-09T06:25:09.620Z,100115.91
2018-05-09T06:27:38.119Z,100112.00
2018-05-09T06:30:07.340Z,100112.36
2018-05-09T06:32:35.607Z,100107.42
2018-05-09T06:35:06.845Z,100118.59
2018-05-09T06:37:35.124Z,100107.02
2018-05-09T06:40:07.381Z,100103.10
2018-05-09T06:42:36.919Z,100114.03
2018-05-09T06:45:06.797Z,100106.08
2018-05-09T06:47:35.063Z,100100.55
2018-05-09T06:50:07.168Z,100102.25
2018-05-09T06:52:35.444Z,100112.20
2018-05-09T06:55:07.471Z,100113.44
2018-05-09T07:00:10.305Z,100112.59
2018-05-09T07:02:38.568Z,100109.80
2018-05-09T07:05:06.851Z,100116.31
2018-05-09T07:07:35.121Z,100110.08
2018-05-09T07:10:06.391Z,100112.38
2018-05-09T07:12:34.683Z,100112.66
2018-05-09T07:15:09.844Z,100109.47
2018-05-09T07:17:38.291Z,100099.11
2018-05-09T07:20:06.724Z,100100.03
2018-05-09T07:22:35.142Z,100102.95
2018-05-09T07:25:06.443Z,100098.11
2018-05-09T07:27:34.718Z,100091.09
2018-05-09T07:30:09.722Z,100089.50
2018-05-09T07:32:37.991Z,100087.49
2018-05-09T07:35:06.612Z,100084.53
2018-05-09T07:37:34.848Z,100085.19
2018-05-09T07:40:06.578Z,100084.23
2018-05-09T07:42:34.874Z,100091.44
2018-05-09T07:45:06.791Z,100081.36
2018-05-09T07:47:35.132Z,100082.70
2018-05-09T07:50:06.291Z,100084.22
2018-05-09T07:52:34.668Z,100084.87
2018-05-09T07:55:06.271Z,100080.55
2018-05-09T07:57:34.538Z,100077.31
2018-05-09T08:00:06.600Z,100086.38
2018-05-09T08:02:34.864Z,100088.08
2018-05-09T08:05:06.425Z,100088.17
2018-05-09T08:07:34.791Z,100082.30
2018-05-09T08:10:06.254Z,100091.27
2018-05-09T08:12:34.527Z,100084.47
2018-05-09T08:15:08.651Z,100075.23
2018-05-09T08:17:36.923Z,100078.09
2018-05-09T08:20:06.979Z,100073.89
2018-05-09T08:22:35.420Z,100078.07
2018-05-09T08:25:07.468Z,100078.78
2018-05-09T08:27:35.735Z,100083.33
2018-05-09T08:30:07.446Z,100076.66
2018-05-09T08:32:35.900Z,100072.13
2018-05-09T08:35:07.228Z,100070.70
2018-05-09T08:37:35.701Z,100069.75
2018-05-09T08:40:08.575Z,100074.22
2018-05-09T08:42:36.864Z,100073.41
2018-05-09T08:45:06.369Z,100073.91
2018-05-09T08:47:34.657Z,100063.30
2018-05-09T08:50:06.100Z,100065.64
2018-05-09T08:52:34.384Z,100058.25
2018-05-09T08:55:06.176Z,100054.37
2018-05-09T08:57:34.451Z,100055.16
2018-05-09T09:00:05.963Z,100054.83
2018-05-09T09:02:34.321Z,100056.58
2018-05-09T09:05:09.227Z,100054.52
2018-05-09T09:07:37.511Z,100048.97
2018-05-09T09:10:07.187Z,100048.45
2018-05-09T09:12:35.474Z,100049.98
2018-05-09T09:15:07.449Z,100057.42
2018-05-09T09:17:36.132Z,100043.98
2018-05-09T09:20:07.655Z,100048.47
2018-05-09T09:22:35.956Z,100047.62
2018-05-09T09:25:08.819Z,100041.08
2018-05-09T09:27:37.539Z,100045.22
2018-05-09T09:30:07.370Z,100038.73
2018-05-09T09:32:35.693Z,100036.11
2018-05-09T09:35:07.615Z,100034.97
2018-05-09T09:37:35.903Z,100028.77
2018-05-09T09:40:07.755Z,100026.67
2018-05-09T09:42:36.042Z,100022.73
2018-05-09T09:45:07.771Z,100028.62
2018-05-09T09:47:36.079Z,100022.06
2018-05-09T09:50:08.051Z,100019.13
2018-05-09T09:52:36.611Z,100025.31
2018-05-09T09:55:06.595Z,100015.41
2018-05-09T09:57:34.887Z,100001.86
2018-05-09T10:00:10.007Z,99999.72
2018-05-09T10:02:38.428Z,99994.02
2018-05-09T10:05:06.835Z,99989.48
2018-05-09T10:07:35.140Z,99989.55
2018-05-09T10:10:06.366Z,99990.66
2018-05-09T10:12:34.700Z,99986.34
2018-05-09T10:15:07.904Z,100000.48
2018-05-09T10:17:40.353Z,99987.53
2018-05-09T10:20:08.627Z,99986.96
2018-05-09T10:22:37.387Z,99975.34
2018-05-09T10:25:07.305Z,99972.83
2018-05-09T10:27:35.580Z,99970.05
2018-05-09T10:30:06.470Z,99975.17
2018-05-09T10:32:34.791Z,99965.38
2018-05-09T10:35:06.839Z,99961.39
2018-05-09T10:37:35.173Z,99948.37
2018-05-09T10:40:06.420Z,99947.02
2018-05-09T10:42:34.939Z,99946.36
2018-05-09T10:45:06.357Z,99936.36
2018-05-09T10:47:34.640Z,99941.77
2018-05-09T10:50:06.127Z,99942.84
2018-05-09T10:52:34.392Z,99955.91
2018-05-09T10:55:09.403Z,99952.67
2018-05-09T10:57:37.701Z,99952.77
2018-05-09T11:00:06.879Z,99945.35
2018-05-09T11:02:35.344Z,99939.90
2018-05-09T11:05:07.664Z,99939.41
2018-05-09T11:07:35.882Z,99939.41
2018-05-09T11:10:07.175Z,99940.45
2018-05-09T11:12:35.720Z,99930.73
2018-05-09T11:15:07.829Z,99930.66
2018-05-09T11:17:36.153Z,99932.78
2018-05-09T11:20:07.294Z,99927.47
2018-05-09T11:22:35.548Z,99928.45
2018-05-09T11:25:07.544Z,99916.89
2018-05-09T11:27:35.810Z,99923.27
2018-05-09T11:30:07.909Z,99923.02
2018-05-09T11:32:36.164Z,99915.11
2018-05-09T11:35:08.199Z,99915.41
2018-05-09T11:37:36.461Z,99915.89
2018-05-09T11:40:06.731Z,99910.35
2018-05-09T11:42:35.224Z,99917.34
2018-05-09T11:45:06.742Z,99913.06
2018-05-09T11:47:35.003Z,99898.78
2018-05-09T11:50:06.451Z,99900.73
2018-05-09T11:52:34.896Z,99899.72
2018-05-09T11:55:10.201Z,99898.51
2018-05-09T11:57:38.450Z,99897.55
2018-05-09T12:00:07.002Z,99893.33
2018-05-09T12:02:35.564Z,99892.89
2018-05-09T12:05:06.307Z,99893.20
2018-05-09T12:07:34.579Z,99879.42
2018-05-09T12:10:07.339Z,99886.93
2018-05-09T12:12:35.618Z,99885.06
2018-05-09T12:15:05.799Z,99882.19
2018-05-09T12:17:34.491Z,99876.12
2018-05-09T12:20:07.428Z,99875.53
2018-05-09T12:22:35.711Z,99870.23
2018-05-09T12:25:05.494Z,99865.34
2018-05-09T12:27:33.765Z,99871.13
2018-05-09T12:30:07.759Z,99869.34
2018-05-09T12:32:37.038Z,99871.52
2018-05-09T12:35:05.831Z,99868.75
2018-05-09T12:37:34.106Z,99859.64
2018-05-09T12:40:08.137Z,99857.97
2018-05-09T12:42:36.598Z,99855.41
2018-05-09T12:45:06.536Z,99856.99
2018-05-09T12:47:34.794Z,99850.53
2018-05-09T12:50:06.844Z,99851.56
2018-05-09T12:52:35.248Z,99846.76
2018-05-09T12:55:08.040Z,99852.62
2018-05-09T12:57:36.455Z,99843.58
2018-05-09T13:00:06.352Z,99840.02
2018-05-09T13:02:34.639Z,99845.38
2018-05-09T13:05:05.855Z,99836.06
2018-05-09T13:07:34.388Z,99830.18
2018-05-09T13:10:07.007Z,99829.85
2018-05-09T13:12:35.286Z,99835.64
2018-05-09T13:15:06.604Z,99834.86
2018-05-09T13:17:34.871Z,99839.35
2018-05-09T13:20:06.871Z,99839.77
2018-05-09T13:22:35.201Z,99835.66
2018-05-09T13:25:06.696Z,99828.30
2018-05-09T13:27:35.172Z,99828.58
2018-05-09T13:30:08.135Z,99822.45
2018-05-09T13:32:36.649Z,99826.84
2018-05-09T13:35:05.870Z,99824.75
2018-05-09T13:37:34.142Z,99827.89
2018-05-09T13:40:06.286Z,99814.27
2018-05-09T13:42:34.555Z,99814.02
2018-05-09T13:45:07.511Z,99808.56
2018-05-09T13:47:36.087Z,99806.37
2018-05-09T13:50:06.867Z,99811.67
2018-05-09T13:52:35.212Z,99808.56
2018-05-09T13:55:07.319Z,99812.79
2018-05-09T13:57:35.750Z,99805.82
2018-05-09T14:00:05.736Z,99805.29
2018-05-09T14:02:34.017Z,99795.12
2018-05-09T14:05:09.139Z,99797.25
2018-05-09T14:07:37.732Z,99794.23
2018-05-09T14:10:05.987Z,99792.69
2018-05-09T14:12:34.295Z,99798.69
2018-05-09T14:15:05.924Z,99793.87
2018-05-09T14:17:34.184Z,99796.38
2018-05-09T14:20:06.304Z,99788.08
2018-05-09T14:22:34.563Z,99792.27
2018-05-09T14:25:05.874Z,99796.13
2018-05-09T14:27:34.147Z,99785.21
2018-05-09T14:30:09.031Z,99782.76
2018-05-09T14:32:37.392Z,99782.75
2018-05-09T14:35:06.290Z,99782.41
2018-05-09T14:37:35.047Z,99776.75
2018-05-09T14:40:07.063Z,99774.73
2018-05-09T14:42:35.312Z,99774.23
2018-05-09T14:45:06.823Z,99769.84
2018-05-09T14:47:35.101Z,99771.03
2018-05-09T14:50:06.963Z,99761.50
2018-05-09T14:52:35.372Z,99763.59
2018-05-09T14:55:07.064Z,99762.33
2018-05-09T14:57:35.332Z,99766.68
2018-05-09T15:00:07.335Z,99755.16
2018-05-09T15:02:35.603Z,99755.95
2018-05-09T15:05:06.952Z,99762.20
2018-05-09T15:07:35.739Z,99755.87
2018-05-09T15:10:05.668Z,99763.73
2018-05-09T15:12:33.942Z,99765.34
2018-05-09T15:15:07.856Z,99762.59
2018-05-09T15:17:36.127Z,99758.64
2018-05-09T15:20:06.255Z,99755.87
2018-05-09T15:22:35.459Z,99759.05
2018-05-09T15:25:07.282Z,99758.20
2018-05-09T15:27:35.539Z,99757.69
2018-05-09T15:30:06.007Z,99750.92
2018-05-09T15:32:34.479Z,99755.04
2018-05-09T15:35:05.826Z,99747.70
2018-05-09T15:37:34.112Z,99741.06
2018-05-09T15:40:05.650Z,99743.98
2018-05-09T15:42:33.899Z,99746.23
2018-05-09T15:45:06.827Z,99746.41
2018-05-09T15:47:35.100Z,99740.82
2018-05-09T15:50:06.546Z,99746.94
2018-05-09T15:52:34.828Z,99742.98
2018-05-09T15:55:06.235Z,99733.52
2018-05-09T15:57:34.498Z,99739.59
2018-05-09T16:00:08.444Z,99737.80
2018-05-09T16:02:36.716Z,99735.89
2018-05-09T16:05:08.063Z,99738.82
2018-05-09T16:07:36.322Z,99738.45
2018-05-09T16:10:06.426Z,99730.97
2018-05-09T16:12:34.885Z,99727.89
2018-05-09T16:15:07.020Z,99731.80
2018-05-09T16:17:35.281Z,99728.78
2018-05-09T16:20:06.698Z,99733.42
2018-05-09T16:22:34.959Z,99718.14
2018-05-09T16:25:06.156Z,99728.26
2018-05-09T16:27:34.431Z,99725.68
2018-05-09T16:30:07.467Z,99728.41
2018-05-09T16:32:35.738Z,99724.45
2018-05-09T16:35:05.913Z,99717.08
2018-05-09T16:37:34.178Z,99723.33
2018-05-09T16:40:08.215Z,99721.56
2018-05-09T16:42:36.475Z,99725.30
2018-05-09T16:45:06.396Z,99721.63
2018-05-09T16:47:34.659Z,99718.73
2018-05-09T16:50:08.592Z,99720.27
2018-05-09T16:52:37.632Z,99723.16
2018-05-09T16:55:06.057Z,99672.66
2018-05-09T16:57:34.341Z,99725.79
2018-05-09T17:00:05.766Z,99725.71
2018-05-09T17:02:34.066Z,99724.25
2018-05-09T17:05:05.399Z,99726.97
2018-05-09T17:07:33.682Z,99728.05
2018-05-09T17:10:08.431Z,99730.42
2018-05-09T17:12:36.722Z,99733.00
2018-05-09T17:15:06.136Z,99734.08
2018-05-09T17:17:34.458Z,99723.97
2018-05-09T17:20:06.134Z,99724.89
2018-05-09T17:22:34.431Z,99728.38
2018-05-09T17:25:06.288Z,99722.04
2018-05-09T17:27:34.822Z,99724.80
2018-05-09T17:30:06.872Z,99716.98
2018-05-09T17:32:35.157Z,99722.07
2018-05-09T17:35:05.953Z,99723.08
2018-05-09T17:37:34.239Z,99721.45
2018-05-09T17:40:05.771Z,99707.52
2018-05-09T17:42:34.229Z,99715.58
2018-05-09T17:45:05.420Z,99725.95
2018-05-09T17:47:33.701Z,99726.56
2018-05-09T17:50:08.454Z,99718.44
2018-05-09T17:52:36.715Z,99725.27
2018-05-09T17:55:06.430Z,99724.34
2018-05-09T17:57:34.707Z,99717.34
2018-05-09T18:00:05.991Z,99724.29
2018-05-09T18:02:34.277Z,99726.69
2018-05-09T18:05:05.671Z,99719.28
2018-05-09T18:07:33.949Z,99723.17
2018-05-09T18:10:05.850Z,99720.12
2018-05-09T18:12:34.141Z,99721.70
2018-05-09T18:15:05.429Z,99718.67
2018-05-09T18:17:33.712Z,99718.29
2018-05-09T18:20:08.343Z,99715.31
2018-05-09T18:22:36.631Z,99717.22
2018-05-09T18:25:06.728Z,99712.83
2018-05-09T18:27:35.019Z,99723.47
2018-05-09T18:30:07.139Z,99726.87
2018-05-09T18:32:35.579Z,99724.21
2018-05-09T18:35:07.567Z,99727.75
2018-05-09T18:37:35.914Z,99732.83
2018-05-09T18:40:07.225Z,99733.97
2018-05-09T18:42:35.468Z,99730.61
2018-05-09T18:45:06.657Z,99727.19
2018-05-09T18:47:35.006Z,99729.19
2018-05-09T18:50:07.580Z,99728.21
2018-05-09T18:52:35.877Z,99727.59
2018-05-09T18:55:07.420Z,99725.72
2018-05-09T18:57:35.844Z,99733.80
2018-05-09T19:00:07.167Z,99733.22
2018-05-09T19:02:35.465Z,99732.13
2018-05-09T19:05:06.771Z,99734.76
2018-05-09T19:07:35.051Z,99736.59
2018-05-09T19:10:06.353Z,99728.63
2018-05-09T19:12:34.730Z,99742.33
2018-05-09T19:15:06.849Z,99733.25
2018-05-09T19:17:35.312Z,99733.44
2018-05-09T19:20:06.069Z,99737.45
2018-05-09T19:22:34.387Z,99738.30
2018-05-09T19:25:05.928Z,99741.36
2018-05-09T19:27:34.253Z,99744.00
2018-05-09T19:30:05.561Z,99744.38
2018-05-09T19:32:33.831Z,99748.67
2018-05-09T19:35:08.626Z,99743.47
2018-05-09T19:37:37.030Z,99751.07
2018-05-09T19:40:06.219Z,99757.50
2018-05-09T19:42:34.483Z,99752.79
2018-05-09T19:45:06.059Z,99759.91
2018-05-09T19:47:34.335Z,99759.09
2018-05-09T19:50:05.932Z,99762.89
2018-05-09T19:52:34.184Z,99769.64
2018-05-09T19:55:06.116Z,99761.09
2018-05-09T19:57:34.328Z,99767.55
2018-05-09T20:00:05.831Z,99766.12
2018-05-09T20:02:34.161Z,99768.72
2018-05-09T20:05:05.993Z,99766.30
2018-05-09T20:07:34.251Z,99771.53
2018-05-09T20:10:05.539Z,99769.41
2018-05-09T20:12:33.789Z,99774.22
2018-05-09T20:15:08.600Z,99776.21
2018-05-09T20:17:36.848Z,99772.16
2018-05-09T20:20:06.472Z,99773.37
2018-05-09T20:22:34.729Z,99771.45
2018-05-09T20:25:06.351Z,99768.91
2018-05-09T20:27:35.288Z,99772.00
2018-05-09T20:30:12.900Z,99771.19
2018-05-09T20:32:41.153Z,99769.62
2018-05-09T20:35:09.771Z,99769.95
2018-05-09T20:37:38.048Z,99770.13
2018-05-09T20:40:06.333Z,99768.56
2018-05-09T20:42:34.619Z,99775.02
2018-05-09T20:45:06.041Z,99772.42
2018-05-09T20:47:34.443Z,99762.63
2018-05-09T20:50:06.481Z,99769.88
2018-05-09T20:52:34.780Z,99769.75
2018-05-09T20:55:27.668Z,99773.16
2018-05-09T20:57:56.743Z,99772.20
2018-05-09T21:00:25.160Z,99780.27
2018-05-09T21:02:53.483Z,99778.41
2018-05-09T21:05:22.051Z,99784.62
2018-05-09T21:07:57.032Z,99781.31
2018-05-09T21:10:25.330Z,99787.77
2018-05-09T21:12:53.608Z,99789.24
2018-05-09T21:15:21.903Z,99795.96
2018-05-09T21:17:50.173Z,99782.33
2018-05-09T21:20:18.470Z,99798.62
2018-05-09T21:22:46.766Z,99792.86
2018-05-09T21:25:15.067Z,99801.05
2018-05-09T21:27:43.389Z,99792.46
2018-05-09T21:30:11.633Z,99796.20
2018-05-09T21:32:39.910Z,99795.99
2018-05-09T21:35:09.182Z,99790.00
2018-05-09T21:37:37.448Z,99797.39
2018-05-09T21:40:06.629Z,99797.88
2018-05-09T21:42:34.863Z,99798.89
2018-05-09T21:45:08.900Z,99805.91
2018-05-09T21:47:37.161Z,99795.27
2018-05-09T21:50:06.584Z,99800.75
2018-05-09T21:52:34.875Z,99808.80
2018-05-09T21:55:08.891Z,99819.16
2018-05-09T21:57:37.163Z,99822.50
2018-05-09T22:00:06.790Z,99827.75
2018-05-09T22:02:35.055Z,99818.37
2018-05-09T22:05:07.039Z,99820.61
2018-05-09T22:07:35.340Z,99808.06
2018-05-09T22:10:07.002Z,99818.00
2018-05-09T22:12:35.297Z,99817.91
2018-05-09T22:15:06.655Z,99814.25
2018-05-09T22:17:34.936Z,99818.64
2018-05-09T22:20:07.059Z,99818.70
2018-05-09T22:22:35.339Z,99824.84
2018-05-09T22:25:06.312Z,99823.59
2018-05-09T22:27:34.592Z,99823.20
2018-05-09T22:30:08.503Z,99822.36
2018-05-09T22:32:36.769Z,99825.59
2018-05-09T22:35:09.007Z,99814.19
2018-05-09T22:37:37.285Z,99816.53
2018-05-09T22:40:07.139Z,99810.98
2018-05-09T22:42:35.708Z,99812.55
2018-05-09T22:45:07.659Z,99811.61
2018-05-09T22:47:35.944Z,99813.16
2018-05-09T22:50:07.262Z,99809.64
2018-05-09T22:52:35.569Z,99807.76
2018-05-09T22:55:07.962Z,99812.70
2018-05-09T22:57:36.239Z,99806.19
2018-05-09T23:00:07.726Z,99812.45
2018-05-09T23:02:36.155Z,99810.42
2018-05-09T23:05:07.470Z,99808.16
2018-05-09T23:07:35.787Z,99813.38
2018-05-09T23:10:06.989Z,99815.02
2018-05-09T23:12:35.400Z,99810.47
2018-05-09T23:15:07.290Z,99819.88
2018-05-09T23:17:35.938Z,99820.48
2018-05-09T23:20:07.303Z,99825.53
2018-05-09T23:22:35.601Z,99818.67
2018-05-09T23:25:07.516Z,99828.80
2018-05-09T23:27:36.611Z,99821.94
2018-05-09T23:30:07.910Z,99822.87
2018-05-09T23:32:36.213Z,99825.70
2018-05-09T23:35:08.978Z,99826.39
2018-05-09T23:37:37.271Z,99821.87
2018-05-09T23:40:07.366Z,99822.66
2018-05-09T23:42:35.660Z,99818.16
2018-05-09T23:45:06.948Z,99833.13
2018-05-09T23:47:35.231Z,99829.95
2018-05-09T23:50:06.487Z,99827.55
2018-05-09T23:52:34.820Z,99835.61
2018-05-09T23:55:09.878Z,99842.18
2018-05-09T23:57:38.167Z,99831.94
